Time;durP1;ratioP1;P1;durP2;ratioP2;P2;SDS_P1;SDS_P2;PMS_P1;PMS_P2;Temp;Humidity;BMP_temperature;BMP_pressure;BME280_temperature;BME280_humidity;BME280_pressure;Samples;Min_cycle;Max_cycle;Signal;HPM_P1;HPM_P2
2021/01/23 00:00:08;;;;;;;;;;;;;;;;;;5007256;28;867;-63
2021/01/23 00:02:33;;;;;;;;;;;;;;;;;;5008817;28;918;-62
2021/01/23 00:04:58;;;;;;;;;;;;;;;;;;5007667;28;890;-65
2021/01/23 00:07:24;;;;;;;;;;;;;;;;;;5005756;28;1677;-64
2021/01/23 00:09:49;;;;;;;;;;;;;;;;;;5026980;28;791;-62
2021/01/23 00:12:14;;;;;;;;;;;;;;;;;;5004742;28;1902;-63
2021/01/23 00:14:40;;;;;;;;;;;;;;;;;;4997054;28;1612;-62
2021/01/23 00:17:05;;;;;;;;;;;;;;;;;;4994679;28;1503;-65
2021/01/23 00:19:30;;;;;;;;;;;;;;;;;;5008320;28;1524;-62
2021/01/23 00:21:56;;;;;;;;;;;;;;;;;;5005041;28;1156;-62
2021/01/23 00:24:21;;;;;;;;;;;;;;;;;;5007019;28;894;-64
2021/01/23 00:26:47;;;;;;;;;;;;;;;;;;5005972;28;866;-62
2021/01/23 00:29:12;;;;;;;;;;;;;;;;;;5004736;28;1585;-63
2021/01/23 00:31:38;;;;;;;;;;;;;;;;;;5007004;28;863;-63
2021/01/23 00:34:03;;;;;;;;;;;;;;;;;;5014234;28;1971;-62
2021/01/23 00:36:29;;;;;;;;;;;;;;;;;;5025109;28;1435;-65
2021/01/23 00:38:54;;;;;;;;;;;;;;;;;;5004083;28;1453;-63
2021/01/23 00:41:20;;;;;;;;;;;;;;;;;;5015789;28;1461;-62
2021/01/23 00:43:45;;;;;;;;;;;;;;;;;;4990552;28;1395;-62
2021/01/23 00:46:10;;;;;;;;;;;;;;;;;;5004717;28;1561;-62
2021/01/23 00:48:36;;;;;;;;;;;;;;;;;;5005589;28;1345;-63
2021/01/23 00:51:01;;;;;;;;;;;;;;;;;;5006677;28;1076;-62
2021/01/23 00:53:26;;;;;;;;;;;;;;;;;;5006419;28;1964;-64
2021/01/23 00:55:52;;;;;;;;;;;;;;;;;;5006762;28;840;-64
2021/01/23 00:58:17;;;;;;;;;;;;;;;;;;5006620;28;855;-65
2021/01/23 01:00:42;;;;;;;;;;;;;;;;;;5006639;28;966;-64
2021/01/23 01:03:08;;;;;;;;;;;;;;;;;;5007166;28;820;-64
2021/01/23 01:05:33;;;;;;;;;;;;;;;;;;5007366;28;839;-64
2021/01/23 01:07:58;;;;;;;;;;;;;;;;;;5005705;28;1445;-64
2021/01/23 01:10:24;;;;;;;;;;;;;;;;;;5005354;28;1564;-63
2021/01/23 01:12:49;;;;;;;;;;;;;;;;;;5002688;28;1902;-64
2021/01/23 01:15:15;;;;;;;;;;;;;;;;;;5004631;28;1075;-64
2021/01/23 01:17:40;;;;;;;;;;;;;;;;;;5004856;28;1532;-64
2021/01/23 01:20:06;;;;;;;;;;;;;;;;;;5006611;28;815;-66
2021/01/23 01:22:31;;;;;;;;;;;;;;;;;;5006828;28;815;-64
2021/01/23 01:24:56;;;;;;;;;;;;;;;;;;5006162;28;1430;-65
2021/01/23 01:27:22;;;;;;;;;;;;;;;;;;5025764;28;1214;-65
2021/01/23 01:29:48;;;;;;;;;;;;;;;;;;5025864;28;914;-64
2021/01/23 01:32:13;;;;;;;;;;;;;;;;;;5012944;28;1893;-65
2021/01/23 01:34:38;;;;;;;;;;;;;;;;;;5007102;28;803;-64
2021/01/23 01:37:04;;;;;;;;;;;;;;;;;;5003792;28;1488;-64
2021/01/23 01:39:29;;;;;;;;;;;;;;;;;;5009465;28;850;-64
2021/01/23 01:41:54;;;;;;;;;;;;;;;;;;5015636;28;1696;-64
2021/01/23 01:44:20;;;;;;;;;;;;;;;;;;5009010;28;847;-64
2021/01/23 01:46:45;;;;;;;;;;;;;;;;;;5006588;28;1485;-64
2021/01/23 01:49:11;;;;;;;;;;;;;;;;;;5022791;28;1531;-65
2021/01/23 01:51:37;;;;;;;;;;;;;;;;;;5013486;28;1657;-64
2021/01/23 01:54:02;;;;;;;;;;;;;;;;;;5008819;28;1894;-64
2021/01/23 01:56:28;;;;;;;;;;;;;;;;;;5011781;28;1569;-64
2021/01/23 01:58:53;;;;;;;;;;;;;;;;;;5009009;28;1454;-64
2021/01/23 02:01:19;;;;;;;;;;;;;;;;;;5007603;28;1409;-64
2021/01/23 02:03:53;;;;;;;;;;;;;;;;;;5020481;28;1587;-65
2021/01/23 02:06:26;;;;;;;;;;;;;;;;;;5007586;28;1457;-64
2021/01/23 02:09:05;;;;;;;;;;;;;;;;;;5007954;28;1172;-64
2021/01/23 02:11:33;;;;;;;;;;;;;;;;;;5008233;28;1762;-64
2021/01/23 02:14:08;;;;;;;;;;;;;;;;;;5025728;28;1995;-64
2021/01/23 02:16:35;;;;;;;;;;;;;;;;;;5029402;28;810;-64
2021/01/23 02:19:06;;;;;;;;;;;;;;;;;;5028357;28;1072;-64
2021/01/23 02:21:50;;;;;;;;;;;;;;;;;;5012007;28;1509;-64
2021/01/23 02:24:20;;;;;;;;;;;;;;;;;;5028443;28;827;-65
2021/01/23 02:26:58;;;;;;;;;;;;;;;;;;5027784;28;874;-64
2021/01/23 02:29:31;;;;;;;;;;;;;;;;;;5011325;28;1368;-64
2021/01/23 02:31:59;;;;;;;;;;;;;;;;;;5008586;28;923;-64
2021/01/23 02:34:25;;;;;;;;;;;;;;;;;;5008011;28;1886;-64
2021/01/23 02:36:53;;;;;;;;;;;;;;;;;;5006782;28;1477;-65
2021/01/23 02:39:19;;;;;;;;;;;;;;;;;;5028344;28;866;-64
2021/01/23 02:41:46;;;;;;;;;;;;;;;;;;5028168;28;902;-64
2021/01/23 02:44:12;;;;;;;;;;;;;;;;;;5026511;28;1544;-64
2021/01/23 02:46:37;;;;;;;;;;;;;;;;;;5016260;28;1359;-65
2021/01/23 02:49:02;;;;;;;;;;;;;;;;;;5006511;28;1432;-63
2021/01/23 02:51:33;;;;;;;;;;;;;;;;;;5007645;28;859;-64
2021/01/23 02:54:05;;;;;;;;;;;;;;;;;;5007719;28;1902;-64
2021/01/23 02:56:31;;;;;;;;;;;;;;;;;;5009359;28;844;-64
2021/01/23 02:59:00;;;;;;;;;;;;;;;;;;5002461;28;1551;-64
2021/01/23 03:01:26;;;;;;;;;;;;;;;;;;5008181;28;962;-64
2021/01/23 03:03:55;;;;;;;;;;;;;;;;;;5007328;28;902;-64
2021/01/23 03:06:21;;;;;;;;;;;;;;;;;;5008760;28;864;-64
2021/01/23 03:08:46;;;;;;;;;;;;;;;;;;5006279;28;1627;-64
2021/01/23 03:11:12;;;;;;;;;;;;;;;;;;5007571;28;800;-63
2021/01/23 03:13:37;;;;;;;;;;;;;;;;;;5017643;28;1898;-65
2021/01/23 03:16:02;;;;;;;;;;;;;;;;;;5027550;28;889;-63
2021/01/23 03:18:28;;;;;;;;;;;;;;;;;;5016313;28;1583;-64
2021/01/23 03:20:53;;;;;;;;;;;;;;;;;;5018989;28;1730;-64
2021/01/23 03:23:18;;;;;;;;;;;;;;;;;;5010521;28;1647;-64
2021/01/23 03:25:44;;;;;;;;;;;;;;;;;;5019207;28;1639;-64
2021/01/23 03:28:09;;;;;;;;;;;;;;;;;;5006741;28;858;-63
2021/01/23 03:30:34;;;;;;;;;;;;;;;;;;5007930;28;803;-64
2021/01/23 03:33:00;;;;;;;;;;;;;;;;;;5008199;28;1916;-64
2021/01/23 03:35:26;;;;;;;;;;;;;;;;;;5006368;28;1295;-64
2021/01/23 03:37:51;;;;;;;;;;;;;;;;;;5015015;28;1501;-64
2021/01/23 03:40:17;;;;;;;;;;;;;;;;;;5026751;28;986;-63
2021/01/23 03:42:43;;;;;;;;;;;;;;;;;;5026530;28;1085;-64
2021/01/23 03:45:09;;;;;;;;;;;;;;;;;;5013974;28;1617;-63
2021/01/23 03:47:34;;;;;;;;;;;;;;;;;;5007126;28;1673;-64
2021/01/23 03:49:59;;;;;;;;;;;;;;;;;;5005117;28;1460;-64
2021/01/23 03:52:25;;;;;;;;;;;;;;;;;;4989453;28;1973;-64
2021/01/23 03:54:50;;;;;;;;;;;;;;;;;;5006229;28;1132;-64
2021/01/23 03:57:16;;;;;;;;;;;;;;;;;;5005945;28;1466;-64
2021/01/23 03:59:41;;;;;;;;;;;;;;;;;;5006040;28;1468;-64
2021/01/23 04:02:06;;;;;;;;;;;;;;;;;;5007952;28;1616;-64
2021/01/23 04:04:32;;;;;;;;;;;;;;;;;;5015644;28;1664;-63
2021/01/23 04:06:58;;;;;;;;;;;;;;;;;;5005991;28;823;-63
2021/01/23 04:09:23;;;;;;;;;;;;;;;;;;5005060;28;1423;-64
2021/01/23 04:11:49;;;;;;;;;;;;;;;;;;5006731;28;918;-64
2021/01/23 04:14:14;;;;;;;;;;;;;;;;;;5007031;28;1902;-63
2021/01/23 04:16:40;;;;;;;;;;;;;;;;;;5016430;28;1407;-63
2021/01/23 04:19:05;;;;;;;;;;;;;;;;;;5026560;28;933;-65
2021/01/23 04:21:31;;;;;;;;;;;;;;;;;;5026826;28;857;-63
2021/01/23 04:23:56;;;;;;;;;;;;;;;;;;5024657;28;1442;-64
2021/01/23 04:26:22;;;;;;;;;;;;;;;;;;5005809;28;1645;-63
2021/01/23 04:28:47;;;;;;;;;;;;;;;;;;5006617;28;1581;-63
2021/01/23 04:31:13;;;;;;;;;;;;;;;;;;5006433;28;891;-63
2021/01/23 04:33:38;;;;;;;;;;;;;;;;;;5006113;28;1971;-63
2021/01/23 04:36:05;;;;;;;;;;;;;;;;;;5008233;28;1452;-64
2021/01/23 04:38:31;;;;;;;;;;;;;;;;;;5024147;28;1424;-64
2021/01/23 04:40:56;;;;;;;;;;;;;;;;;;5024065;28;1797;-62
2021/01/23 04:43:22;;;;;;;;;;;;;;;;;;5007800;28;1619;-63
2021/01/23 04:45:48;;;;;;;;;;;;;;;;;;5019802;28;1506;-64
2021/01/23 04:48:15;;;;;;;;;;;;;;;;;;5006404;28;824;-64
2021/01/23 04:50:40;;;;;;;;;;;;;;;;;;5005581;28;1083;-64
2021/01/23 04:53:06;;;;;;;;;;;;;;;;;;5006694;28;1902;-64
2021/01/23 04:55:31;;;;;;;;;;;;;;;;;;5006038;28;1591;-65
2021/01/23 04:57:57;;;;;;;;;;;;;;;;;;5005243;28;1482;-64
2021/01/23 05:00:22;;;;;;;;;;;;;;;;;;5005343;28;863;-63
2021/01/23 05:03:01;;;;;;;;;;;;;;;;;;5006705;28;862;-64
2021/01/23 05:05:27;;;;;;;;;;;;;;;;;;5015434;28;1505;-63
2021/01/23 05:07:52;;;;;;;;;;;;;;;;;;5026530;28;865;-63
2021/01/23 05:10:26;;;;;;;;;;;;;;;;;;5007831;28;1482;-63
2021/01/23 05:12:52;;;;;;;;;;;;;;;;;;5008736;28;1976;-64
2021/01/23 05:15:22;;;;;;;;;;;;;;;;;;5008924;28;1746;-64
2021/01/23 05:17:52;;;;;;;;;;;;;;;;;;5007563;28;1428;-64
2021/01/23 05:20:36;;;;;;;;;;;;;;;;;;5007265;28;1538;-64
2021/01/23 05:23:13;;;;;;;;;;;;;;;;;;5009804;28;847;-64
2021/01/23 05:25:39;;;;;;;;;;;;;;;;;;4990273;28;895;-64
2021/01/23 05:28:05;;;;;;;;;;;;;;;;;;4994188;28;1383;-64
2021/01/23 05:30:57;;;;;;;;;;;;;;;;;;5011012;28;859;-65
2021/01/23 05:33:24;;;;;;;;;;;;;;;;;;5005547;28;1969;-64
2021/01/23 05:36:06;;;;;;;;;;;;;;;;;;5008593;28;1719;-64
2021/01/23 05:38:33;;;;;;;;;;;;;;;;;;5007466;28;1462;-64
2021/01/23 05:41:09;;;;;;;;;;;;;;;;;;5008505;28;1391;-63
2021/01/23 05:43:44;;;;;;;;;;;;;;;;;;5006398;28;1255;-65
2021/01/23 05:46:10;;;;;;;;;;;;;;;;;;5007502;28;1642;-65
2021/01/23 05:48:39;;;;;;;;;;;;;;;;;;5000593;28;1457;-64
2021/01/23 05:51:04;;;;;;;;;;;;;;;;;;5010519;28;1565;-64
2021/01/23 05:53:30;;;;;;;;;;;;;;;;;;5005715;28;1890;-62
2021/01/23 05:55:56;;;;;;;;;;;;;;;;;;5023604;28;1573;-62
2021/01/23 05:58:22;;;;;;;;;;;;;;;;;;5026625;28;1547;-63
2021/01/23 06:00:48;;;;;;;;;;;;;;;;;;5026442;28;1357;-62
2021/01/23 06:03:14;;;;;;;;;;;;;;;;;;5028296;28;831;-63
2021/01/23 06:05:39;;;;;;;;;;;;;;;;;;5027726;28;819;-62
2021/01/23 06:08:05;;;;;;;;;;;;;;;;;;5013566;28;1194;-64
2021/01/23 06:10:30;;;;;;;;;;;;;;;;;;5007434;28;1473;-64
2021/01/23 06:12:56;;;;;;;;;;;;;;;;;;5026351;28;1957;-63
2021/01/23 06:15:34;;;;;;;;;;;;;;;;;;5016742;28;1612;-61
2021/01/23 06:18:00;;;;;;;;;;;;;;;;;;5005976;28;1466;-63
2021/01/23 06:20:40;;;;;;;;;;;;;;;;;;5013519;28;1438;-63
2021/01/23 06:23:06;;;;;;;;;;;;;;;;;;5022284;28;1614;-66
2021/01/23 06:25:50;;;;;;;;;;;;;;;;;;5007405;28;1648;-62
2021/01/23 06:28:16;;;;;;;;;;;;;;;;;;5008588;28;1552;-63
2021/01/23 06:30:41;;;;;;;;;;;;;;;;;;5007806;28;994;-63
2021/01/23 06:33:21;;;;;;;;;;;;;;;;;;5001848;28;1910;-63
2021/01/23 06:36:07;;;;;;;;;;;;;;;;;;5007386;28;1657;-63
2021/01/23 06:38:33;;;;;;;;;;;;;;;;;;5005435;28;1452;-63
2021/01/23 06:41:17;;;;;;;;;;;;;;;;;;5026472;28;1536;-63
2021/01/23 06:44:21;;;;;;;;;;;;;;;;;;5005195;28;1452;-65
2021/01/23 06:46:49;;;;;;;;;;;;;;;;;;4964039;28;1636;-64
2021/01/23 06:49:14;;;;;;;;;;;;;;;;;;4967226;28;1441;-65
2021/01/23 06:51:40;;;;;;;;;;;;;;;;;;4986005;28;1040;-65
2021/01/23 06:54:13;;;;;;;;;;;;;;;;;;5007727;28;1981;-65
2021/01/23 06:56:41;;;;;;;;;;;;;;;;;;4993083;28;1665;-64
2021/01/23 06:59:06;;;;;;;;;;;;;;;;;;5016479;28;1284;-65
2021/01/23 07:01:32;;;;;;;;;;;;;;;;;;5007187;28;1360;-65
2021/01/23 07:03:57;;;;;;;;;;;;;;;;;;5022757;28;1429;-65
2021/01/23 07:06:29;;;;;;;;;;;;;;;;;;5006017;28;1527;-65
2021/01/23 07:08:54;;;;;;;;;;;;;;;;;;5006732;28;1367;-65
2021/01/23 07:11:23;;;;;;;;;;;;;;;;;;5007025;28;1559;-64
2021/01/23 07:13:59;;;;;;;;;;;;;;;;;;5018756;28;1886;-65
2021/01/23 07:16:25;;;;;;;;;;;;;;;;;;5026571;28;1485;-65
2021/01/23 07:18:51;;;;;;;;;;;;;;;;;;5014203;28;1556;-64
2021/01/23 07:21:16;;;;;;;;;;;;;;;;;;5006044;28;1402;-64
2021/01/23 07:23:42;;;;;;;;;;;;;;;;;;5019936;28;1537;-64
2021/01/23 07:26:07;;;;;;;;;;;;;;;;;;5003462;28;1458;-64
2021/01/23 07:28:33;;;;;;;;;;;;;;;;;;5001307;28;1674;-64
2021/01/23 07:30:58;;;;;;;;;;;;;;;;;;5005968;28;883;-65
2021/01/23 07:33:30;;;;;;;;;;;;;;;;;;5006136;28;1898;-65
2021/01/23 07:35:56;;;;;;;;;;;;;;;;;;5007861;28;1560;-65
2021/01/23 07:38:21;;;;;;;;;;;;;;;;;;5024937;28;1526;-64
2021/01/23 07:40:47;;;;;;;;;;;;;;;;;;5006279;28;1613;-63
2021/01/23 07:43:12;;;;;;;;;;;;;;;;;;5018763;28;1477;-66
2021/01/23 07:45:38;;;;;;;;;;;;;;;;;;4991203;28;1591;-66
2021/01/23 07:48:07;;;;;;;;;;;;;;;;;;5006753;28;1465;-65
2021/01/23 07:50:40;;;;;;;;;;;;;;;;;;5006226;28;1280;-64
2021/01/23 07:53:15;;;;;;;;;;;;;;;;;;5003759;28;1897;-67
2021/01/23 07:55:40;;;;;;;;;;;;;;;;;;5006305;28;1372;-65
2021/01/23 07:58:08;;;;;;;;;;;;;;;;;;5015738;28;1489;-64
2021/01/23 08:00:34;;;;;;;;;;;;;;;;;;5019291;28;1677;-66
2021/01/23 08:03:00;;;;;;;;;;;;;;;;;;5003765;28;1600;-65
2021/01/23 08:05:45;;;;;;;;;;;;;;;;;;5016566;28;1659;-64
2021/01/23 08:08:11;;;;;;;;;;;;;;;;;;5015160;28;1388;-64
2021/01/23 08:10:37;;;;;;;;;;;;;;;;;;5011363;28;1631;-64
2021/01/23 08:13:04;;;;;;;;;;;;;;;;;;4996016;28;1914;-63
2021/01/23 08:15:39;;;;;;;;;;;;;;;;;;5014049;28;1440;-64
2021/01/23 08:18:15;;;;;;;;;;;;;;;;;;5006230;28;1101;-66
2021/01/23 08:20:40;;;;;;;;;;;;;;;;;;4999874;28;1547;-62
2021/01/23 08:23:07;;;;;;;;;;;;;;;;;;5006222;28;1476;-65
2021/01/23 08:25:34;;;;;;;;;;;;;;;;;;5008799;28;1414;-62
2021/01/23 08:27:59;;;;;;;;;;;;;;;;;;5001796;28;1501;-65
2021/01/23 08:30:25;;;;;;;;;;;;;;;;;;4993375;28;1442;-63
2021/01/23 08:32:51;;;;;;;;;;;;;;;;;;5003705;28;1973;-62
2021/01/23 08:35:20;;;;;;;;;;;;;;;;;;5003678;28;1438;-64
2021/01/23 08:37:46;;;;;;;;;;;;;;;;;;5024100;28;1417;-62
2021/01/23 08:40:12;;;;;;;;;;;;;;;;;;5004995;28;1345;-63
2021/01/23 08:42:37;;;;;;;;;;;;;;;;;;5018478;28;1485;-62
2021/01/23 08:45:05;;;;;;;;;;;;;;;;;;5011354;28;1555;-65
2021/01/23 08:47:31;;;;;;;;;;;;;;;;;;5003034;28;1446;-62
2021/01/23 08:49:56;;;;;;;;;;;;;;;;;;4966937;28;10916;-62
2021/01/23 08:52:21;;;;;;;;;;;;;;;;;;5013552;28;1134;-64
2021/01/23 08:54:47;;;;;;;;;;;;;;;;;;5010564;28;1902;-69
2021/01/23 08:57:12;;;;;;;;;;;;;;;;;;5009184;28;1555;-66
2021/01/23 08:59:37;;;;;;;;;;;;;;;;;;5004596;28;1411;-60
2021/01/23 09:02:03;;;;;;;;;;;;;;;;;;4996927;28;1531;-61
2021/01/23 09:04:28;;;;;;;;;;;;;;;;;;4992741;28;1385;-64
2021/01/23 09:06:53;;;;;;;;;;;;;;;;;;5008526;28;1345;-58
2021/01/23 09:09:19;;;;;;;;;;;;;;;;;;5005951;28;2305;-62
2021/01/23 09:11:44;;;;;;;;;;;;;;;;;;4998703;28;1612;-60
2021/01/23 09:14:10;;;;;;;;;;;;;;;;;;5007308;28;1898;-60
2021/01/23 09:16:35;;;;;;;;;;;;;;;;;;5004756;28;1625;-61
2021/01/23 09:19:01;;;;;;;;;;;;;;;;;;5009444;28;1390;-60
2021/01/23 09:21:27;;;;;;;;;;;;;;;;;;5009667;28;1472;-60
2021/01/23 09:23:52;;;;;;;;;;;;;;;;;;5005226;28;1481;-60
2021/01/23 09:26:17;;;;;;;;;;;;;;;;;;5007652;28;1535;-60
2021/01/23 09:28:43;;;;;;;;;;;;;;;;;;5004397;28;2398;-60
2021/01/23 09:31:08;;;;;;;;;;;;;;;;;;4995728;28;1443;-61
2021/01/23 09:33:34;;;;;;;;;;;;;;;;;;5009316;28;1930;-60
2021/01/23 09:35:59;;;;;;;;;;;;;;;;;;4999603;28;1425;-61
2021/01/23 09:38:25;;;;;;;;;;;;;;;;;;5003613;28;1389;-60
2021/01/23 09:40:50;;;;;;;;;;;;;;;;;;5004255;28;1617;-59
2021/01/23 09:43:16;;;;;;;;;;;;;;;;;;4988709;28;1438;-60
2021/01/23 09:45:41;;;;;;;;;;;;;;;;;;5008736;28;1466;-60
2021/01/23 09:48:07;;;;;;;;;;;;;;;;;;4998839;28;1739;-60
2021/01/23 09:50:33;;;;;;;;;;;;;;;;;;5004363;28;1623;-60
2021/01/23 09:52:58;;;;;;;;;;;;;;;;;;4990511;28;1894;-60
2021/01/23 09:55:24;;;;;;;;;;;;;;;;;;4988823;28;1414;-64
2021/01/23 09:57:49;;;;;;;;;;;;;;;;;;5012612;28;1343;-67
2021/01/23 10:00:15;;;;;;;;;;;;;;;;;;5007484;28;1210;-68
2021/01/23 10:02:41;;;;;;;;;;;;;;;;;;5008832;28;1151;-67
2021/01/23 10:05:07;;;;;;;;;;;;;;;;;;5009485;28;800;-68
2021/01/23 10:07:33;;;;;;;;;;;;;;;;;;5009257;28;1630;-67
2021/01/23 10:09:58;;;;;;;;;;;;;;;;;;5009717;28;902;-67
2021/01/23 10:12:23;;;;;;;;;;;;;;;;;;5008190;28;1305;-65
2021/01/23 10:14:49;;;;;;;;;;;;;;;;;;4999360;28;1906;-64
2021/01/23 10:17:14;;;;;;;;;;;;;;;;;;5007731;28;1504;-66
2021/01/23 10:19:40;;;;;;;;;;;;;;;;;;5007035;28;1466;-66
2021/01/23 10:22:05;;;;;;;;;;;;;;;;;;5006222;28;1539;-68
2021/01/23 10:24:31;;;;;;;;;;;;;;;;;;5005372;28;804;-64
2021/01/23 10:26:56;;;;;;;;;;;;;;;;;;5004029;28;1276;-66
2021/01/23 10:29:22;;;;;;;;;;;;;;;;;;4989001;28;839;-64
2021/01/23 10:31:47;;;;;;;;;;;;;;;;;;5005751;28;1651;-65
2021/01/23 10:34:12;;;;;;;;;;;;;;;;;;5008177;28;1890;-65
2021/01/23 10:36:39;;;;;;;;;;;;;;;;;;5004318;28;1539;-64
2021/01/23 10:39:05;;;;;;;;;;;;;;;;;;5003645;28;1537;-65
2021/01/23 10:41:30;;;;;;;;;;;;;;;;;;5002558;28;1601;-65
2021/01/23 10:43:55;;;;;;;;;;;;;;;;;;4992053;28;1596;-65
2021/01/23 10:46:21;;;;;;;;;;;;;;;;;;4990326;28;1444;-66
2021/01/23 10:48:46;;;;;;;;;;;;;;;;;;5006308;28;1656;-66
2021/01/23 10:51:11;;;;;;;;;;;;;;;;;;5026124;28;1370;-65
2021/01/23 10:53:37;;;;;;;;;;;;;;;;;;5026725;28;1969;-65
2021/01/23 10:56:03;;;;;;;;;;;;;;;;;;5028515;28;874;-66
2021/01/23 10:58:29;;;;;;;;;;;;;;;;;;5005791;28;1623;-64
2021/01/23 11:00:54;;;;;;;;;;;;;;;;;;4998890;28;1503;-66
2021/01/23 11:03:20;;;;;;;;;;;;;;;;;;4987140;28;846;-65
2021/01/23 11:05:45;;;;;;;;;;;;;;;;;;5003854;28;1621;-65
2021/01/23 11:08:10;;;;;;;;;;;;;;;;;;5008276;28;1081;-66
2021/01/23 11:10:36;;;;;;;;;;;;;;;;;;5005029;28;1501;-66
2021/01/23 11:13:02;;;;;;;;;;;;;;;;;;5008610;28;2037;-64
2021/01/23 11:15:28;;;;;;;;;;;;;;;;;;5007078;28;851;-66
2021/01/23 11:17:53;;;;;;;;;;;;;;;;;;5006901;28;1037;-66
2021/01/23 11:20:18;;;;;;;;;;;;;;;;;;5003667;28;1454;-67
2021/01/23 11:22:44;;;;;;;;;;;;;;;;;;5004979;28;1571;-65
2021/01/23 11:25:10;;;;;;;;;;;;;;;;;;5006804;28;1409;-66
2021/01/23 11:27:36;;;;;;;;;;;;;;;;;;5005326;28;1428;-66
2021/01/23 11:30:02;;;;;;;;;;;;;;;;;;5004756;28;1618;-65
2021/01/23 11:32:28;;;;;;;;;;;;;;;;;;5005565;28;1576;-66
2021/01/23 11:34:53;;;;;;;;;;;;;;;;;;5005091;28;1922;-65
2021/01/23 11:37:18;;;;;;;;;;;;;;;;;;4999972;28;1500;-65
2021/01/23 11:39:44;;;;;;;;;;;;;;;;;;4995269;28;1939;-65
2021/01/23 11:42:09;;;;;;;;;;;;;;;;;;5003210;28;1444;-64
2021/01/23 11:44:35;;;;;;;;;;;;;;;;;;5005363;28;1262;-67
2021/01/23 11:47:00;;;;;;;;;;;;;;;;;;5007125;28;883;-66
2021/01/23 11:49:26;;;;;;;;;;;;;;;;;;5004179;28;1669;-65
2021/01/23 11:51:51;;;;;;;;;;;;;;;;;;5003510;28;1605;-65
2021/01/23 11:54:17;;;;;;;;;;;;;;;;;;5013957;28;1930;-66
2021/01/23 11:56:42;;;;;;;;;;;;;;;;;;5012887;28;1599;-65
2021/01/23 11:59:08;;;;;;;;;;;;;;;;;;5005782;28;1446;-65
2021/01/23 12:01:34;;;;;;;;;;;;;;;;;;5010718;28;1060;-65
2021/01/23 12:03:59;;;;;;;;;;;;;;;;;;5005227;28;1039;-66
2021/01/23 12:06:25;;;;;;;;;;;;;;;;;;5005902;28;1544;-65
2021/01/23 12:08:50;;;;;;;;;;;;;;;;;;5002095;28;1511;-64
2021/01/23 12:11:15;;;;;;;;;;;;;;;;;;5005638;28;1404;-67
2021/01/23 12:13:41;;;;;;;;;;;;;;;;;;5003467;28;1926;-65
2021/01/23 12:16:06;;;;;;;;;;;;;;;;;;5009223;28;1441;-67
2021/01/23 12:18:31;;;;;;;;;;;;;;;;;;5003623;28;1713;-65
2021/01/23 12:20:57;;;;;;;;;;;;;;;;;;5000623;28;1478;-69
2021/01/23 12:23:22;;;;;;;;;;;;;;;;;;5006760;28;1450;-67
2021/01/23 12:25:48;;;;;;;;;;;;;;;;;;5006027;28;1489;-67
2021/01/23 12:28:13;;;;;;;;;;;;;;;;;;5001561;28;1702;-65
2021/01/23 12:30:38;;;;;;;;;;;;;;;;;;5003480;28;1441;-65
2021/01/23 12:33:04;;;;;;;;;;;;;;;;;;5003442;28;1914;-65
2021/01/23 12:35:29;;;;;;;;;;;;;;;;;;5002458;28;1738;-65
2021/01/23 12:37:58;;;;;;;;;;;;;;;;;;5002827;28;1460;-66
2021/01/23 12:40:24;;;;;;;;;;;;;;;;;;5005148;28;914;-66
2021/01/23 12:42:50;;;;;;;;;;;;;;;;;;5002152;28;1662;-63
2021/01/23 12:45:15;;;;;;;;;;;;;;;;;;5004345;28;916;-64
2021/01/23 12:47:41;;;;;;;;;;;;;;;;;;5006159;28;919;-67
2021/01/23 12:50:07;;;;;;;;;;;;;;;;;;5007391;28;1446;-65
2021/01/23 12:52:32;;;;;;;;;;;;;;;;;;5008855;28;1627;-65
2021/01/23 12:54:57;;;;;;;;;;;;;;;;;;5009050;28;1894;-65
2021/01/23 12:57:23;;;;;;;;;;;;;;;;;;4999931;28;1652;-64
2021/01/23 12:59:48;;;;;;;;;;;;;;;;;;5001597;28;1629;-65
2021/01/23 13:02:14;;;;;;;;;;;;;;;;;;4993266;28;1473;-66
2021/01/23 13:04:39;;;;;;;;;;;;;;;;;;4995030;28;1477;-66
2021/01/23 13:07:06;;;;;;;;;;;;;;;;;;4994153;28;1221;-67
2021/01/23 13:09:31;;;;;;;;;;;;;;;;;;4994839;28;1300;-64
2021/01/23 13:11:57;;;;;;;;;;;;;;;;;;4995117;28;1170;-66
2021/01/23 13:14:22;;;;;;;;;;;;;;;;;;5003410;28;2029;-64
2021/01/23 13:16:48;;;;;;;;;;;;;;;;;;5008919;28;959;-64
2021/01/23 13:19:13;;;;;;;;;;;;;;;;;;5004815;28;1452;-67
2021/01/23 13:21:39;;;;;;;;;;;;;;;;;;5000442;28;1627;-64
2021/01/23 13:24:05;;;;;;;;;;;;;;;;;;5003686;28;1153;-66
2021/01/23 13:26:31;;;;;;;;;;;;;;;;;;5003029;28;1192;-65
2021/01/23 13:28:56;;;;;;;;;;;;;;;;;;5005444;28;1059;-66
2021/01/23 13:31:23;;;;;;;;;;;;;;;;;;5004194;28;1135;-64
2021/01/23 13:33:52;;;;;;;;;;;;;;;;;;5004208;28;1975;-65
2021/01/23 13:36:18;;;;;;;;;;;;;;;;;;5008372;28;1129;-65
2021/01/23 13:38:43;;;;;;;;;;;;;;;;;;5009170;28;1406;-64
2021/01/23 13:41:10;;;;;;;;;;;;;;;;;;5007983;28;1151;-62
2021/01/23 13:43:35;;;;;;;;;;;;;;;;;;5010351;28;1086;-66
2021/01/23 13:46:01;;;;;;;;;;;;;;;;;;5007552;28;1516;-63
2021/01/23 13:48:26;;;;;;;;;;;;;;;;;;5006123;28;1114;-65
2021/01/23 13:50:52;;;;;;;;;;;;;;;;;;5005898;28;1558;-64
2021/01/23 13:53:17;;;;;;;;;;;;;;;;;;5006774;28;1894;-65
2021/01/23 13:55:43;;;;;;;;;;;;;;;;;;5006212;28;1628;-65
2021/01/23 13:58:08;;;;;;;;;;;;;;;;;;5007896;28;1159;-65
2021/01/23 14:00:34;;;;;;;;;;;;;;;;;;5006935;28;1111;-65
2021/01/23 14:02:59;;;;;;;;;;;;;;;;;;5008385;28;1131;-64
2021/01/23 14:05:25;;;;;;;;;;;;;;;;;;5008131;28;1320;-64
2021/01/23 14:07:50;;;;;;;;;;;;;;;;;;5005917;28;1499;-63
2021/01/23 14:10:16;;;;;;;;;;;;;;;;;;5008802;28;1278;-65
2021/01/23 14:12:42;;;;;;;;;;;;;;;;;;5007546;28;1993;-63
2021/01/23 14:15:07;;;;;;;;;;;;;;;;;;5002610;28;1654;-64
2021/01/23 14:17:33;;;;;;;;;;;;;;;;;;5008968;28;1547;-64
2021/01/23 14:19:59;;;;;;;;;;;;;;;;;;5007704;28;1171;-64
2021/01/23 14:22:25;;;;;;;;;;;;;;;;;;5010963;28;1523;-62
2021/01/23 14:24:51;;;;;;;;;;;;;;;;;;5011236;28;1086;-64
2021/01/23 14:27:19;;;;;;;;;;;;;;;;;;5011949;28;1087;-65
2021/01/23 14:29:46;;;;;;;;;;;;;;;;;;5026877;28;1004;-64
2021/01/23 14:32:12;;;;;;;;;;;;;;;;;;5014883;28;1541;-66
2021/01/23 14:34:37;;;;;;;;;;;;;;;;;;5014979;28;1897;-66
2021/01/23 14:37:03;;;;;;;;;;;;;;;;;;4968066;28;1635;-62
2021/01/23 14:39:28;;;;;;;;;;;;;;;;;;5022395;28;1364;-65
2021/01/23 14:41:54;;;;;;;;;;;;;;;;;;5009621;28;1397;-61
2021/01/23 14:44:19;;;;;;;;;;;;;;;;;;5009994;28;1148;-62
2021/01/23 14:46:45;;;;;;;;;;;;;;;;;;5009159;28;1130;-63
2021/01/23 14:49:10;;;;;;;;;;;;;;;;;;5008638;28;1445;-63
2021/01/23 14:51:36;;;;;;;;;;;;;;;;;;5011094;28;1100;-64
2021/01/23 14:54:02;;;;;;;;;;;;;;;;;;5005554;28;1975;-66
2021/01/23 14:56:28;;;;;;;;;;;;;;;;;;5007765;28;1083;-65
2021/01/23 14:58:54;;;;;;;;;;;;;;;;;;5005810;28;1170;-65
2021/01/23 15:01:20;;;;;;;;;;;;;;;;;;5006331;28;1473;-61
2021/01/23 15:03:45;;;;;;;;;;;;;;;;;;5004165;28;1102;-66
2021/01/23 15:06:11;;;;;;;;;;;;;;;;;;5009061;28;1472;-66
2021/01/23 15:08:36;;;;;;;;;;;;;;;;;;5007599;28;1576;-68
2021/01/23 15:11:02;;;;;;;;;;;;;;;;;;5017297;28;1284;-62
2021/01/23 15:13:29;;;;;;;;;;;;;;;;;;5012180;28;1894;-64
2021/01/23 15:15:55;;;;;;;;;;;;;;;;;;5015676;28;1055;-65
2021/01/23 15:18:20;;;;;;;;;;;;;;;;;;5013787;28;1145;-66
2021/01/23 15:20:47;;;;;;;;;;;;;;;;;;5015034;28;1070;-64
2021/01/23 15:23:13;;;;;;;;;;;;;;;;;;5004928;28;1452;-68
2021/01/23 15:25:38;;;;;;;;;;;;;;;;;;5006452;28;1518;-64
2021/01/23 15:28:03;;;;;;;;;;;;;;;;;;4994269;28;1057;-63
2021/01/23 15:30:29;;;;;;;;;;;;;;;;;;4994473;28;1227;-65
2021/01/23 15:32:54;;;;;;;;;;;;;;;;;;4995223;28;1902;-66
2021/01/23 15:35:19;;;;;;;;;;;;;;;;;;5007610;28;1060;-64
2021/01/23 15:37:45;;;;;;;;;;;;;;;;;;5006520;28;1583;-65
2021/01/23 15:40:11;;;;;;;;;;;;;;;;;;5007916;28;977;-67
2021/01/23 15:42:36;;;;;;;;;;;;;;;;;;5006447;28;1194;-66
2021/01/23 15:45:03;;;;;;;;;;;;;;;;;;5007793;28;1282;-67
2021/01/23 15:47:28;;;;;;;;;;;;;;;;;;5008142;28;1032;-66
2021/01/23 15:49:54;;;;;;;;;;;;;;;;;;5006955;28;1058;-64
2021/01/23 15:52:20;;;;;;;;;;;;;;;;;;5008211;28;1050;-66
2021/01/23 15:54:45;;;;;;;;;;;;;;;;;;5006643;28;1886;-65
2021/01/23 15:57:10;;;;;;;;;;;;;;;;;;5005355;28;1141;-68
2021/01/23 15:59:36;;;;;;;;;;;;;;;;;;5007554;28;1080;-67
2021/01/23 16:02:01;;;;;;;;;;;;;;;;;;5008240;28;1046;-68
2021/01/23 16:04:27;;;;;;;;;;;;;;;;;;5008072;28;1014;-67
2021/01/23 16:06:52;;;;;;;;;;;;;;;;;;5008459;28;1061;-67
2021/01/23 16:09:17;;;;;;;;;;;;;;;;;;5007666;28;1070;-68
2021/01/23 16:11:43;;;;;;;;;;;;;;;;;;5006829;28;882;-68
2021/01/23 16:14:08;;;;;;;;;;;;;;;;;;5004303;28;1891;-68
2021/01/23 16:16:34;;;;;;;;;;;;;;;;;;5008864;28;1070;-66
2021/01/23 16:18:59;;;;;;;;;;;;;;;;;;5002635;28;1021;-73
2021/01/23 16:21:25;;;;;;;;;;;;;;;;;;4993237;28;1120;-66
2021/01/23 16:23:50;;;;;;;;;;;;;;;;;;4993390;28;1687;-67
2021/01/23 16:26:16;;;;;;;;;;;;;;;;;;5005243;28;1264;-68
2021/01/23 16:28:42;;;;;;;;;;;;;;;;;;5003483;28;1457;-68
2021/01/23 16:31:08;;;;;;;;;;;;;;;;;;5007686;28;1441;-68
2021/01/23 16:33:34;;;;;;;;;;;;;;;;;;5005157;28;1890;-67
2021/01/23 16:36:02;;;;;;;;;;;;;;;;;;5003634;28;1073;-66
2021/01/23 16:38:27;;;;;;;;;;;;;;;;;;5003384;28;1009;-68
2021/01/23 16:40:53;;;;;;;;;;;;;;;;;;5004023;28;1406;-69
2021/01/23 16:43:19;;;;;;;;;;;;;;;;;;5001972;28;1712;-69
2021/01/23 16:45:44;;;;;;;;;;;;;;;;;;4998109;28;1107;-69
2021/01/23 16:48:10;;;;;;;;;;;;;;;;;;5008817;28;1075;-68
2021/01/23 16:50:36;;;;;;;;;;;;;;;;;;5004826;28;1558;-70
2021/01/23 16:53:01;;;;;;;;;;;;;;;;;;4996688;28;1902;-68
2021/01/23 16:55:27;;;;;;;;;;;;;;;;;;5006387;28;1059;-68
2021/01/23 16:57:52;;;;;;;;;;;;;;;;;;5012312;28;1049;-68
2021/01/23 17:00:18;;;;;;;;;;;;;;;;;;5002379;28;1603;-69